sensor_id;sensor_type;location;lat;lon;timestamp;P1;durP1;ratioP1;P2;durP2;ratioP2
40649;SDS011;26342;42.826;23.992;2022-07-30T00:01:29;4.55;;;2.45;;
40649;SDS011;26342;42.826;23.992;2022-07-30T00:03:54;3.45;;;2.60;;
40649;SDS011;26342;42.826;23.992;2022-07-30T00:06:20;3.78;;;2.65;;
40649;SDS011;26342;42.826;23.992;2022-07-30T00:08:45;5.32;;;2.50;;
40649;SDS011;26342;42.826;23.992;2022-07-30T00:11:10;5.00;;;2.47;;
40649;SDS011;26342;42.826;23.992;2022-07-30T00:13:36;3.45;;;2.40;;
40649;SDS011;26342;42.826;23.992;2022-07-30T00:16:02;5.35;;;2.20;;
40649;SDS011;26342;42.826;23.992;2022-07-30T00:18:27;3.20;;;2.50;;
40649;SDS011;26342;42.826;23.992;2022-07-30T00:20:53;4.20;;;2.47;;
40649;SDS011;26342;42.826;23.992;2022-07-30T00:23:18;3.22;;;2.50;;
40649;SDS011;26342;42.826;23.992;2022-07-30T00:25:43;4.70;;;2.40;;
40649;SDS011;26342;42.826;23.992;2022-07-30T00:28:09;3.75;;;2.75;;
40649;SDS011;26342;42.826;23.992;2022-07-30T00:30:34;4.30;;;2.83;;
40649;SDS011;26342;42.826;23.992;2022-07-30T00:33:00;3.53;;;2.60;;
40649;SDS011;26342;42.826;23.992;2022-07-30T00:35:25;3.45;;;2.40;;
40649;SDS011;26342;42.826;23.992;2022-07-30T00:37:51;2.92;;;2.35;;
40649;SDS011;26342;42.826;23.992;2022-07-30T00:40:17;4.30;;;2.40;;
40649;SDS011;26342;42.826;23.992;2022-07-30T00:42:44;3.83;;;2.33;;
40649;SDS011;26342;42.826;23.992;2022-07-30T00:45:10;2.85;;;2.53;;
40649;SDS011;26342;42.826;23.992;2022-07-30T00:47:37;2.88;;;2.40;;
40649;SDS011;26342;42.826;23.992;2022-07-30T00:50:04;3.15;;;2.35;;
40649;SDS011;26342;42.826;23.992;2022-07-30T00:52:32;3.10;;;2.72;;
40649;SDS011;26342;42.826;23.992;2022-07-30T00:54:58;3.35;;;2.60;;
40649;SDS011;26342;42.826;23.992;2022-07-30T00:57:24;2.85;;;2.38;;
40649;SDS011;26342;42.826;23.992;2022-07-30T00:59:51;3.25;;;2.35;;
40649;SDS011;26342;42.826;23.992;2022-07-30T01:02:17;3.42;;;2.40;;
40649;SDS011;26342;42.826;23.992;2022-07-30T01:04:42;4.68;;;2.38;;
40649;SDS011;26342;42.826;23.992;2022-07-30T01:07:09;2.55;;;2.20;;
40649;SDS011;26342;42.826;23.992;2022-07-30T01:09:34;2.92;;;2.35;;
40649;SDS011;26342;42.826;23.992;2022-07-30T01:12:00;3.13;;;2.47;;
40649;SDS011;26342;42.826;23.992;2022-07-30T01:14:26;3.25;;;2.47;;
40649;SDS011;26342;42.826;23.992;2022-07-30T01:16:52;3.05;;;2.35;;
40649;SDS011;26342;42.826;23.992;2022-07-30T01:19:26;3.63;;;2.70;;
40649;SDS011;26342;42.826;23.992;2022-07-30T01:27:28;3.30;;;2.58;;
40649;SDS011;26342;42.826;23.992;2022-07-30T01:29:55;3.13;;;2.35;;
40649;SDS011;26342;42.826;23.992;2022-07-30T01:32:22;3.15;;;2.42;;
40649;SDS011;26342;42.826;23.992;2022-07-30T01:34:50;4.13;;;2.50;;
40649;SDS011;26342;42.826;23.992;2022-07-30T01:37:17;3.17;;;2.50;;
40649;SDS011;26342;42.826;23.992;2022-07-30T01:39:45;3.65;;;2.60;;
40649;SDS011;26342;42.826;23.992;2022-07-30T01:42:11;3.33;;;2.70;;
40649;SDS011;26342;42.826;23.992;2022-07-30T01:44:38;3.92;;;2.80;;
40649;SDS011;26342;42.826;23.992;2022-07-30T01:47:07;3.42;;;2.65;;
40649;SDS011;26342;42.826;23.992;2022-07-30T01:49:34;3.05;;;2.65;;
40649;SDS011;26342;42.826;23.992;2022-07-30T01:52:02;5.25;;;2.92;;
40649;SDS011;26342;42.826;23.992;2022-07-30T01:54:29;4.93;;;3.17;;
40649;SDS011;26342;42.826;23.992;2022-07-30T01:56:57;3.22;;;2.33;;
40649;SDS011;26342;42.826;23.992;2022-07-30T01:59:25;3.38;;;2.50;;
40649;SDS011;26342;42.826;23.992;2022-07-30T02:01:52;3.00;;;2.22;;
40649;SDS011;26342;42.826;23.992;2022-07-30T02:04:18;5.22;;;2.95;;
40649;SDS011;26342;42.826;23.992;2022-07-30T02:07:06;3.45;;;2.45;;
40649;SDS011;26342;42.826;23.992;2022-07-30T02:09:42;3.05;;;2.70;;
40649;SDS011;26342;42.826;23.992;2022-07-30T02:12:15;4.80;;;2.75;;
40649;SDS011;26342;42.826;23.992;2022-07-30T02:15:16;3.17;;;2.50;;
40649;SDS011;26342;42.826;23.992;2022-07-30T02:18:07;3.25;;;2.60;;
40649;SDS011;26342;42.826;23.992;2022-07-30T02:20:52;4.13;;;2.90;;
40649;SDS011;26342;42.826;23.992;2022-07-30T02:23:24;4.78;;;2.78;;
40649;SDS011;26342;42.826;23.992;2022-07-30T02:25:51;3.35;;;2.90;;
40649;SDS011;26342;42.826;23.992;2022-07-30T02:28:18;2.78;;;2.33;;
40649;SDS011;26342;42.826;23.992;2022-07-30T02:30:49;3.30;;;2.58;;
40649;SDS011;26342;42.826;23.992;2022-07-30T02:33:18;2.60;;;2.30;;
40649;SDS011;26342;42.826;23.992;2022-07-30T02:35:48;3.30;;;2.58;;
40649;SDS011;26342;42.826;23.992;2022-07-30T02:38:16;3.63;;;2.78;;
40649;SDS011;26342;42.826;23.992;2022-07-30T02:40:44;2.80;;;2.50;;
40649;SDS011;26342;42.826;23.992;2022-07-30T02:43:15;4.00;;;2.80;;
40649;SDS011;26342;42.826;23.992;2022-07-30T02:45:43;3.78;;;2.67;;
40649;SDS011;26342;42.826;23.992;2022-07-30T02:48:11;3.78;;;2.70;;
40649;SDS011;26342;42.826;23.992;2022-07-30T02:50:39;3.13;;;2.60;;
40649;SDS011;26342;42.826;23.992;2022-07-30T02:53:07;3.20;;;2.90;;
40649;SDS011;26342;42.826;23.992;2022-07-30T02:55:35;4.03;;;2.70;;
40649;SDS011;26342;42.826;23.992;2022-07-30T02:58:03;3.30;;;2.55;;
40649;SDS011;26342;42.826;23.992;2022-07-30T03:00:30;5.55;;;2.80;;
40649;SDS011;26342;42.826;23.992;2022-07-30T03:02:57;3.38;;;2.60;;
40649;SDS011;26342;42.826;23.992;2022-07-30T03:05:25;3.88;;;2.92;;
40649;SDS011;26342;42.826;23.992;2022-07-30T03:07:52;3.25;;;2.92;;
40649;SDS011;26342;42.826;23.992;2022-07-30T03:10:20;4.18;;;3.30;;
40649;SDS011;26342;42.826;23.992;2022-07-30T03:12:46;4.10;;;2.80;;
40649;SDS011;26342;42.826;23.992;2022-07-30T03:15:14;4.95;;;3.13;;
40649;SDS011;26342;42.826;23.992;2022-07-30T03:17:44;3.70;;;2.78;;
40649;SDS011;26342;42.826;23.992;2022-07-30T03:20:14;3.85;;;2.83;;
40649;SDS011;26342;42.826;23.992;2022-07-30T03:22:42;3.70;;;2.83;;
40649;SDS011;26342;42.826;23.992;2022-07-30T03:25:12;3.70;;;2.80;;
40649;SDS011;26342;42.826;23.992;2022-07-30T03:27:40;4.25;;;3.35;;
40649;SDS011;26342;42.826;23.992;2022-07-30T03:30:07;4.10;;;2.80;;
40649;SDS011;26342;42.826;23.992;2022-07-30T03:32:33;3.50;;;2.97;;
40649;SDS011;26342;42.826;23.992;2022-07-30T03:35:01;4.53;;;3.25;;
40649;SDS011;26342;42.826;23.992;2022-07-30T03:37:27;4.05;;;3.00;;
40649;SDS011;26342;42.826;23.992;2022-07-30T03:39:53;4.70;;;3.08;;
40649;SDS011;26342;42.826;23.992;2022-07-30T03:42:22;3.42;;;2.70;;
40649;SDS011;26342;42.826;23.992;2022-07-30T03:44:49;4.45;;;2.97;;
40649;SDS011;26342;42.826;23.992;2022-07-30T03:47:15;4.75;;;2.95;;
40649;SDS011;26342;42.826;23.992;2022-07-30T03:49:42;4.47;;;3.20;;
40649;SDS011;26342;42.826;23.992;2022-07-30T03:52:07;3.65;;;3.28;;
40649;SDS011;26342;42.826;23.992;2022-07-30T03:54:33;4.07;;;2.90;;
40649;SDS011;26342;42.826;23.992;2022-07-30T03:57:00;4.18;;;3.30;;
40649;SDS011;26342;42.826;23.992;2022-07-30T03:59:27;4.85;;;3.00;;
40649;SDS011;26342;42.826;23.992;2022-07-30T04:01:53;4.97;;;3.38;;
40649;SDS011;26342;42.826;23.992;2022-07-30T04:04:23;4.60;;;3.35;;
40649;SDS011;26342;42.826;23.992;2022-07-30T04:06:49;6.15;;;3.42;;
40649;SDS011;26342;42.826;23.992;2022-07-30T04:09:14;3.97;;;3.15;;
40649;SDS011;26342;42.826;23.992;2022-07-30T04:11:40;3.63;;;2.95;;
40649;SDS011;26342;42.826;23.992;2022-07-30T04:14:05;3.50;;;2.80;;
40649;SDS011;26342;42.826;23.992;2022-07-30T04:19:14;3.90;;;2.75;;
40649;SDS011;26342;42.826;23.992;2022-07-30T04:21:42;5.13;;;3.25;;
40649;SDS011;26342;42.826;23.992;2022-07-30T04:24:10;4.55;;;2.75;;
40649;SDS011;26342;42.826;23.992;2022-07-30T04:26:37;4.80;;;2.90;;
40649;SDS011;26342;42.826;23.992;2022-07-30T04:29:04;6.85;;;3.25;;
40649;SDS011;26342;42.826;23.992;2022-07-30T04:31:31;3.97;;;3.35;;
40649;SDS011;26342;42.826;23.992;2022-07-30T04:34:03;5.50;;;3.38;;
40649;SDS011;26342;42.826;23.992;2022-07-30T04:36:29;4.22;;;3.38;;
40649;SDS011;26342;42.826;23.992;2022-07-30T04:38:56;4.63;;;3.88;;
40649;SDS011;26342;42.826;23.992;2022-07-30T04:41:22;4.30;;;3.30;;
40649;SDS011;26342;42.826;23.992;2022-07-30T04:43:49;4.75;;;3.22;;
40649;SDS011;26342;42.826;23.992;2022-07-30T04:46:15;5.35;;;3.78;;
40649;SDS011;26342;42.826;23.992;2022-07-30T04:48:41;4.40;;;3.50;;
40649;SDS011;26342;42.826;23.992;2022-07-30T04:51:08;5.18;;;3.50;;
40649;SDS011;26342;42.826;23.992;2022-07-30T04:53:39;4.82;;;2.88;;
40649;SDS011;26342;42.826;23.992;2022-07-30T04:56:06;4.30;;;3.40;;
40649;SDS011;26342;42.826;23.992;2022-07-30T04:58:33;5.72;;;3.58;;
40649;SDS011;26342;42.826;23.992;2022-07-30T05:00:59;5.70;;;3.63;;
40649;SDS011;26342;42.826;23.992;2022-07-30T05:03:26;6.88;;;4.32;;
40649;SDS011;26342;42.826;23.992;2022-07-30T05:05:54;4.53;;;3.35;;
40649;SDS011;26342;42.826;23.992;2022-07-30T05:08:20;9.40;;;6.00;;
40649;SDS011;26342;42.826;23.992;2022-07-30T05:10:50;21.35;;;12.35;;
40649;SDS011;26342;42.826;23.992;2022-07-30T05:13:15;18.75;;;10.85;;
40649;SDS011;26342;42.826;23.992;2022-07-30T05:15:41;11.45;;;6.25;;
40649;SDS011;26342;42.826;23.992;2022-07-30T05:18:10;10.20;;;4.30;;
40649;SDS011;26342;42.826;23.992;2022-07-30T05:20:36;11.00;;;5.03;;
40649;SDS011;26342;42.826;23.992;2022-07-30T05:23:02;8.23;;;4.47;;
40649;SDS011;26342;42.826;23.992;2022-07-30T05:25:28;6.13;;;3.70;;
40649;SDS011;26342;42.826;23.992;2022-07-30T05:27:53;5.03;;;3.30;;
40649;SDS011;26342;42.826;23.992;2022-07-30T05:30:21;4.68;;;3.80;;
40649;SDS011;26342;42.826;23.992;2022-07-30T05:32:46;6.30;;;3.75;;
40649;SDS011;26342;42.826;23.992;2022-07-30T05:35:12;5.07;;;3.45;;
40649;SDS011;26342;42.826;23.992;2022-07-30T05:37:37;5.88;;;3.20;;
40649;SDS011;26342;42.826;23.992;2022-07-30T05:40:02;5.93;;;3.90;;
40649;SDS011;26342;42.826;23.992;2022-07-30T05:42:28;4.43;;;3.30;;
40649;SDS011;26342;42.826;23.992;2022-07-30T05:44:54;5.35;;;3.67;;
40649;SDS011;26342;42.826;23.992;2022-07-30T05:47:19;7.13;;;2.92;;
40649;SDS011;26342;42.826;23.992;2022-07-30T05:49:45;5.43;;;4.00;;
40649;SDS011;26342;42.826;23.992;2022-07-30T05:52:11;5.47;;;4.05;;
40649;SDS011;26342;42.826;23.992;2022-07-30T05:54:37;6.03;;;4.13;;
40649;SDS011;26342;42.826;23.992;2022-07-30T05:57:02;5.22;;;3.70;;
40649;SDS011;26342;42.826;23.992;2022-07-30T05:59:28;7.32;;;4.63;;
40649;SDS011;26342;42.826;23.992;2022-07-30T06:01:54;6.85;;;4.85;;
40649;SDS011;26342;42.826;23.992;2022-07-30T06:04:19;6.63;;;4.75;;
40649;SDS011;26342;42.826;23.992;2022-07-30T06:06:45;6.97;;;4.80;;
40649;SDS011;26342;42.826;23.992;2022-07-30T06:09:11;4.45;;;3.65;;
40649;SDS011;26342;42.826;23.992;2022-07-30T06:11:36;5.20;;;3.50;;
40649;SDS011;26342;42.826;23.992;2022-07-30T06:14:02;3.53;;;2.90;;
40649;SDS011;26342;42.826;23.992;2022-07-30T06:16:27;4.93;;;2.97;;
40649;SDS011;26342;42.826;23.992;2022-07-30T06:18:53;3.17;;;2.58;;
40649;SDS011;26342;42.826;23.992;2022-07-30T06:21:18;3.08;;;2.75;;
40649;SDS011;26342;42.826;23.992;2022-07-30T06:23:43;3.47;;;2.90;;
40649;SDS011;26342;42.826;23.992;2022-07-30T06:26:09;3.90;;;3.22;;
40649;SDS011;26342;42.826;23.992;2022-07-30T06:28:34;4.70;;;3.05;;
40649;SDS011;26342;42.826;23.992;2022-07-30T06:31:00;3.17;;;2.75;;
40649;SDS011;26342;42.826;23.992;2022-07-30T06:33:26;3.50;;;2.65;;
40649;SDS011;26342;42.826;23.992;2022-07-30T06:35:51;3.33;;;2.65;;
40649;SDS011;26342;42.826;23.992;2022-07-30T06:38:17;3.55;;;2.60;;
40649;SDS011;26342;42.826;23.992;2022-07-30T06:40:42;3.83;;;2.80;;
40649;SDS011;26342;42.826;23.992;2022-07-30T06:43:08;3.33;;;2.70;;
40649;SDS011;26342;42.826;23.992;2022-07-30T06:45:33;3.63;;;2.50;;
40649;SDS011;26342;42.826;23.992;2022-07-30T06:47:59;3.85;;;2.70;;
40649;SDS011;26342;42.826;23.992;2022-07-30T06:50:25;3.50;;;2.70;;
40649;SDS011;26342;42.826;23.992;2022-07-30T06:52:51;5.65;;;2.60;;
40649;SDS011;26342;42.826;23.992;2022-07-30T06:55:17;5.00;;;2.50;;
40649;SDS011;26342;42.826;23.992;2022-07-30T06:57:42;5.05;;;3.30;;
40649;SDS011;26342;42.826;23.992;2022-07-30T07:00:08;3.72;;;2.65;;
40649;SDS011;26342;42.826;23.992;2022-07-30T07:02:34;3.55;;;2.72;;
40649;SDS011;26342;42.826;23.992;2022-07-30T07:05:00;3.33;;;2.67;;
40649;SDS011;26342;42.826;23.992;2022-07-30T07:07:26;2.55;;;2.10;;
40649;SDS011;26342;42.826;23.992;2022-07-30T07:09:51;3.92;;;2.40;;
40649;SDS011;26342;42.826;23.992;2022-07-30T07:12:17;4.35;;;2.70;;
40649;SDS011;26342;42.826;23.992;2022-07-30T07:14:42;3.85;;;2.42;;
40649;SDS011;26342;42.826;23.992;2022-07-30T07:17:08;3.60;;;2.75;;
40649;SDS011;26342;42.826;23.992;2022-07-30T07:19:33;3.72;;;3.08;;
40649;SDS011;26342;42.826;23.992;2022-07-30T07:21:59;3.08;;;2.60;;
40649;SDS011;26342;42.826;23.992;2022-07-30T07:24:24;3.38;;;2.67;;
40649;SDS011;26342;42.826;23.992;2022-07-30T07:26:50;3.33;;;2.53;;
40649;SDS011;26342;42.826;23.992;2022-07-30T07:29:15;3.13;;;2.40;;
40649;SDS011;26342;42.826;23.992;2022-07-30T07:31:41;2.47;;;2.20;;
40649;SDS011;26342;42.826;23.992;2022-07-30T07:34:06;3.60;;;2.42;;
40649;SDS011;26342;42.826;23.992;2022-07-30T07:36:32;4.07;;;2.90;;
40649;SDS011;26342;42.826;23.992;2022-07-30T07:38:59;3.83;;;2.45;;
40649;SDS011;26342;42.826;23.992;2022-07-30T07:41:24;2.88;;;2.40;;
40649;SDS011;26342;42.826;23.992;2022-07-30T07:43:50;3.38;;;2.50;;
40649;SDS011;26342;42.826;23.992;2022-07-30T07:46:15;2.80;;;2.35;;
40649;SDS011;26342;42.826;23.992;2022-07-30T07:48:44;3.72;;;2.60;;
40649;SDS011;26342;42.826;23.992;2022-07-30T07:51:10;2.47;;;2.22;;
40649;SDS011;26342;42.826;23.992;2022-07-30T07:53:35;2.78;;;2.40;;
40649;SDS011;26342;42.826;23.992;2022-07-30T07:56:01;2.80;;;2.42;;
40649;SDS011;26342;42.826;23.992;2022-07-30T07:58:26;3.55;;;2.63;;
40649;SDS011;26342;42.826;23.992;2022-07-30T08:00:52;4.40;;;2.50;;
40649;SDS011;26342;42.826;23.992;2022-07-30T08:03:17;2.80;;;2.35;;
40649;SDS011;26342;42.826;23.992;2022-07-30T08:05:43;2.88;;;2.20;;
40649;SDS011;26342;42.826;23.992;2022-07-30T08:08:09;2.85;;;2.50;;
40649;SDS011;26342;42.826;23.992;2022-07-30T08:10:34;2.80;;;2.30;;
40649;SDS011;26342;42.826;23.992;2022-07-30T08:13:00;3.28;;;2.60;;
40649;SDS011;26342;42.826;23.992;2022-07-30T08:15:27;4.28;;;2.53;;
40649;SDS011;26342;42.826;23.992;2022-07-30T08:17:53;2.85;;;2.50;;
40649;SDS011;26342;42.826;23.992;2022-07-30T08:20:18;3.55;;;2.40;;
40649;SDS011;26342;42.826;23.992;2022-07-30T08:22:46;2.85;;;2.28;;
40649;SDS011;26342;42.826;23.992;2022-07-30T08:25:11;2.80;;;2.17;;
40649;SDS011;26342;42.826;23.992;2022-07-30T08:27:37;3.03;;;2.22;;
40649;SDS011;26342;42.826;23.992;2022-07-30T08:30:03;2.95;;;2.47;;
40649;SDS011;26342;42.826;23.992;2022-07-30T08:32:33;2.65;;;2.05;;
40649;SDS011;26342;42.826;23.992;2022-07-30T08:34:59;4.85;;;2.47;;
40649;SDS011;26342;42.826;23.992;2022-07-30T08:37:24;2.80;;;2.40;;
40649;SDS011;26342;42.826;23.992;2022-07-30T08:39:50;2.85;;;2.45;;
40649;SDS011;26342;42.826;23.992;2022-07-30T08:42:15;3.13;;;2.50;;
40649;SDS011;26342;42.826;23.992;2022-07-30T08:44:41;3.17;;;2.42;;
40649;SDS011;26342;42.826;23.992;2022-07-30T08:47:09;4.78;;;2.70;;
40649;SDS011;26342;42.826;23.992;2022-07-30T08:49:38;4.97;;;2.53;;
40649;SDS011;26342;42.826;23.992;2022-07-30T08:52:04;2.50;;;2.30;;
40649;SDS011;26342;42.826;23.992;2022-07-30T08:54:32;2.67;;;2.33;;
40649;SDS011;26342;42.826;23.992;2022-07-30T08:56:59;3.80;;;3.38;;
40649;SDS011;26342;42.826;23.992;2022-07-30T08:59:24;3.50;;;2.80;;
40649;SDS011;26342;42.826;23.992;2022-07-30T09:01:50;3.22;;;2.65;;
40649;SDS011;26342;42.826;23.992;2022-07-30T09:04:16;3.20;;;2.38;;
40649;SDS011;26342;42.826;23.992;2022-07-30T09:06:42;3.00;;;2.40;;
40649;SDS011;26342;42.826;23.992;2022-07-30T09:09:08;2.60;;;2.30;;
40649;SDS011;26342;42.826;23.992;2022-07-30T09:11:34;3.28;;;2.50;;
40649;SDS011;26342;42.826;23.992;2022-07-30T09:14:07;2.65;;;2.40;;
40649;SDS011;26342;42.826;23.992;2022-07-30T09:16:38;3.70;;;2.50;;
40649;SDS011;26342;42.826;23.992;2022-07-30T09:19:14;3.35;;;2.80;;
40649;SDS011;26342;42.826;23.992;2022-07-30T09:21:58;2.92;;;2.55;;
40649;SDS011;26342;42.826;23.992;2022-07-30T09:24:25;3.33;;;2.47;;
40649;SDS011;26342;42.826;23.992;2022-07-30T09:27:01;2.90;;;2.60;;
40649;SDS011;26342;42.826;23.992;2022-07-30T09:29:31;2.67;;;2.28;;
40649;SDS011;26342;42.826;23.992;2022-07-30T09:34:27;2.70;;;2.38;;
40649;SDS011;26342;42.826;23.992;2022-07-30T09:36:59;5.47;;;2.65;;
40649;SDS011;26342;42.826;23.992;2022-07-30T09:39:33;3.30;;;2.70;;
40649;SDS011;26342;42.826;23.992;2022-07-30T09:42:01;3.10;;;2.80;;
40649;SDS011;26342;42.826;23.992;2022-07-30T09:44:28;4.57;;;2.40;;
40649;SDS011;26342;42.826;23.992;2022-07-30T09:46:54;2.58;;;2.38;;
40649;SDS011;26342;42.826;23.992;2022-07-30T09:49:22;2.70;;;2.50;;
40649;SDS011;26342;42.826;23.992;2022-07-30T09:51:49;4.93;;;2.55;;
40649;SDS011;26342;42.826;23.992;2022-07-30T09:54:16;3.15;;;2.85;;
40649;SDS011;26342;42.826;23.992;2022-07-30T09:56:42;3.50;;;2.42;;
40649;SDS011;26342;42.826;23.992;2022-07-30T09:59:31;3.33;;;2.58;;
40649;SDS011;26342;42.826;23.992;2022-07-30T10:01:56;3.25;;;2.88;;
40649;SDS011;26342;42.826;23.992;2022-07-30T10:04:30;3.00;;;2.55;;
40649;SDS011;26342;42.826;23.992;2022-07-30T10:06:57;3.30;;;3.00;;
40649;SDS011;26342;42.826;23.992;2022-07-30T10:09:27;4.00;;;3.00;;
40649;SDS011;26342;42.826;23.992;2022-07-30T10:11:55;3.40;;;3.10;;
40649;SDS011;26342;42.826;23.992;2022-07-30T10:14:22;6.80;;;2.92;;
40649;SDS011;26342;42.826;23.992;2022-07-30T10:16:52;6.32;;;2.78;;
40649;SDS011;26342;42.826;23.992;2022-07-30T10:19:19;3.20;;;2.90;;
40649;SDS011;26342;42.826;23.992;2022-07-30T10:21:45;4.13;;;2.90;;
40649;SDS011;26342;42.826;23.992;2022-07-30T10:24:12;3.25;;;2.90;;
40649;SDS011;26342;42.826;23.992;2022-07-30T10:26:40;3.42;;;3.05;;
40649;SDS011;26342;42.826;23.992;2022-07-30T10:29:07;3.42;;;3.10;;
40649;SDS011;26342;42.826;23.992;2022-07-30T10:31:33;5.45;;;3.25;;
40649;SDS011;26342;42.826;23.992;2022-07-30T10:33:59;4.63;;;2.95;;
40649;SDS011;26342;42.826;23.992;2022-07-30T10:36:25;4.13;;;2.80;;
40649;SDS011;26342;42.826;23.992;2022-07-30T10:38:52;3.33;;;3.03;;
40649;SDS011;26342;42.826;23.992;2022-07-30T10:46:52;3.78;;;3.10;;
40649;SDS011;26342;42.826;23.992;2022-07-30T10:49:25;3.35;;;2.92;;
40649;SDS011;26342;42.826;23.992;2022-07-30T10:51:51;3.20;;;2.90;;
40649;SDS011;26342;42.826;23.992;2022-07-30T10:54:38;3.33;;;2.88;;
40649;SDS011;26342;42.826;23.992;2022-07-30T11:02:16;3.80;;;2.85;;
40649;SDS011;26342;42.826;23.992;2022-07-30T11:04:43;3.33;;;3.00;;
40649;SDS011;26342;42.826;23.992;2022-07-30T11:09:52;5.25;;;2.75;;
40649;SDS011;26342;42.826;23.992;2022-07-30T11:15:16;4.32;;;2.83;;
40649;SDS011;26342;42.826;23.992;2022-07-30T11:20:24;3.53;;;2.85;;
40649;SDS011;26342;42.826;23.992;2022-07-30T11:22:50;5.47;;;3.03;;
40649;SDS011;26342;42.826;23.992;2022-07-30T11:27:46;3.83;;;3.20;;
40649;SDS011;26342;42.826;23.992;2022-07-30T11:32:39;3.92;;;3.30;;
40649;SDS011;26342;42.826;23.992;2022-07-30T11:40:22;3.92;;;3.20;;
40649;SDS011;26342;42.826;23.992;2022-07-30T11:42:50;4.30;;;3.35;;
40649;SDS011;26342;42.826;23.992;2022-07-30T11:47:42;3.72;;;3.22;;
40649;SDS011;26342;42.826;23.992;2022-07-30T11:50:16;3.75;;;3.10;;
40649;SDS011;26342;42.826;23.992;2022-07-30T11:52:42;3.83;;;3.38;;
40649;SDS011;26342;42.826;23.992;2022-07-30T11:55:12;4.20;;;3.35;;
40649;SDS011;26342;42.826;23.992;2022-07-30T11:57:57;4.25;;;3.30;;
40649;SDS011;26342;42.826;23.992;2022-07-30T12:00:23;3.80;;;2.92;;
40649;SDS011;26342;42.826;23.992;2022-07-30T12:02:49;4.25;;;3.65;;
40649;SDS011;26342;42.826;23.992;2022-07-30T12:05:21;3.50;;;3.20;;
40649;SDS011;26342;42.826;23.992;2022-07-30T12:07:49;3.80;;;3.30;;
40649;SDS011;26342;42.826;23.992;2022-07-30T12:10:15;3.75;;;3.42;;
40649;SDS011;26342;42.826;23.992;2022-07-30T12:12:42;3.72;;;3.35;;
40649;SDS011;26342;42.826;23.992;2022-07-30T12:15:09;3.92;;;3.38;;
40649;SDS011;26342;42.826;23.992;2022-07-30T12:17:42;3.75;;;3.20;;
40649;SDS011;26342;42.826;23.992;2022-07-30T12:20:15;4.07;;;3.53;;
40649;SDS011;26342;42.826;23.992;2022-07-30T12:22:43;4.45;;;3.60;;
40649;SDS011;26342;42.826;23.992;2022-07-30T12:25:09;3.38;;;3.08;;
40649;SDS011;26342;42.826;23.992;2022-07-30T12:27:35;5.30;;;3.28;;
40649;SDS011;26342;42.826;23.992;2022-07-30T12:30:01;4.10;;;3.63;;
40649;SDS011;26342;42.826;23.992;2022-07-30T12:32:28;3.78;;;3.42;;
40649;SDS011;26342;42.826;23.992;2022-07-30T12:34:55;4.43;;;3.53;;
40649;SDS011;26342;42.826;23.992;2022-07-30T12:37:22;7.93;;;5.97;;
40649;SDS011;26342;42.826;23.992;2022-07-30T12:39:48;4.85;;;3.60;;
40649;SDS011;26342;42.826;23.992;2022-07-30T12:42:17;4.20;;;3.00;;
40649;SDS011;26342;42.826;23.992;2022-07-30T12:44:43;4.20;;;3.30;;
40649;SDS011;26342;42.826;23.992;2022-07-30T12:47:22;4.72;;;3.45;;
40649;SDS011;26342;42.826;23.992;2022-07-30T12:49:50;4.13;;;3.38;;
40649;SDS011;26342;42.826;23.992;2022-07-30T12:52:30;3.95;;;3.40;;
40649;SDS011;26342;42.826;23.992;2022-07-30T13:03:18;4.80;;;3.25;;
40649;SDS011;26342;42.826;23.992;2022-07-30T13:05:49;4.50;;;3.38;;
40649;SDS011;26342;42.826;23.992;2022-07-30T13:08:16;4.03;;;3.55;;
40649;SDS011;26342;42.826;23.992;2022-07-30T13:10:57;3.45;;;3.10;;
40649;SDS011;26342;42.826;23.992;2022-07-30T13:13:28;3.72;;;2.95;;
40649;SDS011;26342;42.826;23.992;2022-07-30T13:15:57;3.75;;;2.92;;
40649;SDS011;26342;42.826;23.992;2022-07-30T13:18:29;4.18;;;3.75;;
40649;SDS011;26342;42.826;23.992;2022-07-30T13:20:56;4.45;;;3.10;;
40649;SDS011;26342;42.826;23.992;2022-07-30T13:23:23;4.10;;;3.70;;
40649;SDS011;26342;42.826;23.992;2022-07-30T13:25:49;4.05;;;3.50;;
40649;SDS011;26342;42.826;23.992;2022-07-30T13:28:15;4.05;;;3.70;;
40649;SDS011;26342;42.826;23.992;2022-07-30T13:30:41;3.97;;;3.30;;
40649;SDS011;26342;42.826;23.992;2022-07-30T13:33:06;3.50;;;3.20;;
40649;SDS011;26342;42.826;23.992;2022-07-30T13:35:32;4.63;;;3.50;;
40649;SDS011;26342;42.826;23.992;2022-07-30T13:37:57;4.65;;;3.90;;
40649;SDS011;26342;42.826;23.992;2022-07-30T13:40:25;4.30;;;3.70;;
40649;SDS011;26342;42.826;23.992;2022-07-30T13:42:50;4.38;;;3.08;;
40649;SDS011;26342;42.826;23.992;2022-07-30T13:45:16;6.25;;;3.38;;
40649;SDS011;26342;42.826;23.992;2022-07-30T13:47:41;4.63;;;3.70;;
40649;SDS011;26342;42.826;23.992;2022-07-30T13:50:07;4.15;;;3.63;;
40649;SDS011;26342;42.826;23.992;2022-07-30T13:52:33;4.38;;;3.55;;
40649;SDS011;26342;42.826;23.992;2022-07-30T13:54:58;4.00;;;3.30;;
40649;SDS011;26342;42.826;23.992;2022-07-30T13:57:23;4.72;;;3.33;;
40649;SDS011;26342;42.826;23.992;2022-07-30T13:59:49;4.13;;;3.72;;
40649;SDS011;26342;42.826;23.992;2022-07-30T14:02:14;3.45;;;3.15;;
40649;SDS011;26342;42.826;23.992;2022-07-30T14:04:40;4.43;;;3.78;;
40649;SDS011;26342;42.826;23.992;2022-07-30T14:07:05;4.65;;;3.50;;
40649;SDS011;26342;42.826;23.992;2022-07-30T14:09:31;3.90;;;3.33;;
40649;SDS011;26342;42.826;23.992;2022-07-30T14:11:57;4.43;;;3.40;;
40649;SDS011;26342;42.826;23.992;2022-07-30T14:14:22;4.93;;;3.63;;
40649;SDS011;26342;42.826;23.992;2022-07-30T14:16:50;4.10;;;3.60;;
40649;SDS011;26342;42.826;23.992;2022-07-30T14:19:16;3.65;;;3.13;;
40649;SDS011;26342;42.826;23.992;2022-07-30T14:21:42;4.65;;;3.25;;
40649;SDS011;26342;42.826;23.992;2022-07-30T14:24:08;4.30;;;3.55;;
40649;SDS011;26342;42.826;23.992;2022-07-30T14:26:36;3.95;;;3.45;;
40649;SDS011;26342;42.826;23.992;2022-07-30T14:29:03;5.53;;;3.35;;
40649;SDS011;26342;42.826;23.992;2022-07-30T14:31:29;4.28;;;3.55;;
40649;SDS011;26342;42.826;23.992;2022-07-30T14:33:54;4.90;;;3.47;;
40649;SDS011;26342;42.826;23.992;2022-07-30T14:36:19;5.50;;;3.90;;
40649;SDS011;26342;42.826;23.992;2022-07-30T14:38:45;4.18;;;3.28;;
40649;SDS011;26342;42.826;23.992;2022-07-30T14:41:10;4.28;;;3.38;;
40649;SDS011;26342;42.826;23.992;2022-07-30T14:43:36;5.57;;;3.85;;
40649;SDS011;26342;42.826;23.992;2022-07-30T14:46:02;4.13;;;3.58;;
40649;SDS011;26342;42.826;23.992;2022-07-30T14:48:27;4.00;;;3.55;;
40649;SDS011;26342;42.826;23.992;2022-07-30T14:50:52;3.83;;;3.40;;
40649;SDS011;26342;42.826;23.992;2022-07-30T14:53:18;3.65;;;3.22;;
40649;SDS011;26342;42.826;23.992;2022-07-30T14:55:43;3.83;;;3.42;;
40649;SDS011;26342;42.826;23.992;2022-07-30T14:58:09;4.18;;;3.38;;
40649;SDS011;26342;42.826;23.992;2022-07-30T15:00:35;4.20;;;3.42;;
40649;SDS011;26342;42.826;23.992;2022-07-30T15:03:00;4.82;;;3.33;;
40649;SDS011;26342;42.826;23.992;2022-07-30T15:05:25;4.65;;;3.20;;
40649;SDS011;26342;42.826;23.992;2022-07-30T15:07:51;6.20;;;3.45;;
40649;SDS011;26342;42.826;23.992;2022-07-30T15:10:16;5.00;;;3.30;;
40649;SDS011;26342;42.826;23.992;2022-07-30T15:12:43;4.22;;;3.45;;
40649;SDS011;26342;42.826;23.992;2022-07-30T15:15:08;3.80;;;3.35;;
40649;SDS011;26342;42.826;23.992;2022-07-30T15:17:34;3.90;;;3.40;;
40649;SDS011;26342;42.826;23.992;2022-07-30T15:20:02;4.22;;;3.47;;
40649;SDS011;26342;42.826;23.992;2022-07-30T15:22:29;5.40;;;3.40;;
40649;SDS011;26342;42.826;23.992;2022-07-30T15:24:54;4.38;;;3.72;;